Thursday, February 22, 2018, 5:25 AM EST
Back to Local

KAFN, Jaffrey Muni-silver Ranch

Location: Jaffrey, NH, United States Lat: 42.8
Local Time: 5:25 AM EST (10:25 GMT) Lon: -72
Time Zone: US/Eastern Elev: 1040 ft

Show me the last for .
Show Decoded

2018-02-22 04:52 METAR KAFN 220952Z AUTO 36004KT 10SM OVC070 03/M06 A3054 RMK AO2 SLP352
                 T00281061 =
2018-02-22 03:52 METAR KAFN 220852Z AUTO VRB04KT 10SM BKN080 OVC100 03/M05 A3052 RMK AO2 SLP342
                 T00331050 51018 =
2018-02-22 02:52 METAR KAFN 220752Z AUTO 34007KT 310V020 10SM BKN075 BKN090 04/M04 A3051 RMK AO2
                 SLP338 T00391044 =
2018-02-22 01:52 METAR KAFN 220652Z AUTO 33004KT 10SM OVC070 05/M05 A3049 RMK AO2 SLP332
                 T00501050 =
2018-02-22 00:52 METAR KAFN 220552Z AUTO VRB03KT 10SM CLR 05/M02 A3046 RMK AO2 SLP324 T00501017
                 10161 20050 53036 =
2018-02-21 23:52 METAR KAFN 220452Z AUTO VRB04KT 10SM SCT075 BKN085 08/01 A3043 RMK AO2 SLP312
                 T00780011 402170022 =
2018-02-21 22:52 METAR KAFN 220352Z AUTO 33004KT 10SM FEW030 OVC070 09/05 A3038 RMK AO2 SLP296
                 T00940050 =
2018-02-21 22:37 METAR KAFN 220337Z AUTO 35007KT 320V050 10SM FEW021 SCT026 OVC070 09/06 A3038
                 RMK AO2 T00940056 =
2018-02-21 21:52 METAR KAFN 220252Z AUTO VRB05KT 10SM BKN024 11/07 A3035 RMK AO2 SLP286 T01060067
                 50007 =
2018-02-21 21:47 METAR KAFN 220247Z AUTO 10SM SCT024 BKN029 11/07 A3035 RMK AO2 =
2018-02-21 21:34 METAR KAFN 220234Z AUTO VRB04KT 10SM SCT026 BKN030 BKN070 11/07 A3034 RMK AO2
                 T01060072 =
2018-02-21 20:52 METAR KAFN 220152Z AUTO 33009G16KT 290V010 10SM BKN024 OVC060 12/08 A3033 RMK
                 AO2 SLP278 T01220083 =
2018-02-21 19:52 METAR KAFN 220052Z AUTO VRB05KT 10SM BKN035 OVC055 14/09 A3029 RMK AO2 SLP266
                 T01390089 =
2018-02-21 19:47 METAR KAFN 220047Z AUTO 31004KT 10SM FEW026 OVC035 14/09 A3029 RMK AO2 =
2018-02-21 18:52 METAR KAFN 212352Z AUTO VRB06KT 10SM BKN026 OVC049 16/12 A3026 RMK AO2 SLP255
                 T01610117 10217 20156 53052 =
2018-02-21 17:52 METAR KAFN 212252Z AUTO 30009G20KT 10SM BKN055 BKN065 OVC085 19/13 A3020 RMK AO2
                 PRESRR SLP233 T01890128 =
2018-02-21 16:52 METAR KAFN 212152Z AUTO 00000KT 10SM BKN050 OVC060 18/13 A3012 RMK AO2 SLP208
                 T01830133 =
2018-02-21 15:52 METAR KAFN 212052Z AUTO 20009G17KT 10SM BKN060 21/13 A3010 RMK AO2 SLP200
                 T02060133 55002 =
2018-02-21 14:52 METAR KAFN 211952Z AUTO 21010G16KT 10SM CLR 21/13 A3009 RMK AO2 SLP197 T02110133
                 =
2018-02-21 13:52 METAR KAFN 211852Z AUTO 20009KT 10SM CLR 20/14 A3009 RMK AO2 SLP197 T02000139 =
2018-02-21 12:52 METAR KAFN 211752Z AUTO 20013G19KT 10SM CLR 18/14 A3011 RMK AO2 SLP202 T01830139
                 10183 20050 58030 =
2018-02-21 11:52 METAR KAFN 211652Z AUTO 21007KT 10SM SCT009 16/14 A3015 RMK AO2 SLP219 T01610139
                 =
2018-02-21 11:24 METAR KAFN 211624Z AUTO 19010G16KT 9SM OVC006 15/14 A3017 RMK AO2 CIG 005V010
                 T01500139 =
2018-02-21 11:09 METAR KAFN 211609Z AUTO 22006KT 7SM OVC005 14/14 A3018 RMK AO2 T01390139 =
2018-02-21 10:52 METAR KAFN 211552Z AUTO 22004KT 6SM BR OVC004 14/14 A3019 RMK AO2 SLP231
                 T01390139 =
2018-02-21 09:52 METAR KAFN 211452Z AUTO VRB05KT 3SM BR OVC002 13/13 A3020 RMK AO2 SLP235
                 T01280128 58003 =
2018-02-21 09:44 METAR KAFN 211444Z AUTO 23004KT 3SM BR OVC002 13/13 A3020 RMK AO2 T01280128 =
2018-02-21 09:20 METAR KAFN 211420Z AUTO 21008KT 2SM BR OVC002 13/13 A3020 RMK AO2 T01280128 =
2018-02-21 09:10 METAR KAFN 211410Z AUTO VRB05KT 1 3/4SM BR OVC002 12/12 A3021 RMK AO2 T01220122
                 =
2018-02-21 09:01 METAR KAFN 211401Z AUTO 21005KT 1 1/4SM BR OVC002 12/12 A3020 RMK AO2 T01220122
                 =
2018-02-21 08:52 METAR KAFN 211352Z AUTO VRB05KT 3/4SM BR OVC002 12/12 A3020 RMK AO2 SLP238
                 T01220122 =
2018-02-21 07:52 METAR KAFN 211252Z AUTO 00000KT M1/4SM FG VV002 11/ A3021 RMK AO2 SLP240 T0106 $
                 =
2018-02-21 06:52 METAR KAFN 211152Z AUTO 19005KT 1/4SM FG VV002 05/ A3021 RMK AO2 SLP242 T0050
                 10050 20022 56009 $ =
2018-02-21 05:52 METAR KAFN 211052Z AUTO 19004KT 1/4SM FG VV002 04/ A3021 RMK AO2 SLP242 T0039 $
                 =

Support USWX by starting your Amazon purchase here.